sensor_id;sensor_type;location;lat;lon;timestamp;P1;durP1;ratioP1;P2;durP2;ratioP2
41663;SDS011;27353;50.906;7.248;2024-01-15T00:02:11;29.63;;;15.60;;
41663;SDS011;27353;50.906;7.248;2024-01-15T00:04:37;32.75;;;18.25;;
41663;SDS011;27353;50.906;7.248;2024-01-15T00:07:04;30.02;;;17.00;;
41663;SDS011;27353;50.906;7.248;2024-01-15T00:09:30;38.80;;;19.42;;
41663;SDS011;27353;50.906;7.248;2024-01-15T00:11:55;30.83;;;17.85;;
41663;SDS011;27353;50.906;7.248;2024-01-15T00:14:22;28.85;;;16.02;;
41663;SDS011;27353;50.906;7.248;2024-01-15T00:16:47;29.80;;;16.80;;
41663;SDS011;27353;50.906;7.248;2024-01-15T00:19:15;35.65;;;16.95;;
41663;SDS011;27353;50.906;7.248;2024-01-15T00:21:41;41.60;;;18.65;;
41663;SDS011;27353;50.906;7.248;2024-01-15T00:24:07;29.83;;;17.45;;
41663;SDS011;27353;50.906;7.248;2024-01-15T00:26:33;45.70;;;22.42;;
41663;SDS011;27353;50.906;7.248;2024-01-15T00:28:58;32.45;;;17.15;;
41663;SDS011;27353;50.906;7.248;2024-01-15T00:31:24;31.42;;;17.67;;
41663;SDS011;27353;50.906;7.248;2024-01-15T00:33:50;33.15;;;18.83;;
41663;SDS011;27353;50.906;7.248;2024-01-15T00:36:15;31.77;;;17.25;;
41663;SDS011;27353;50.906;7.248;2024-01-15T00:38:41;38.55;;;18.65;;
41663;SDS011;27353;50.906;7.248;2024-01-15T00:41:08;37.13;;;20.73;;
41663;SDS011;27353;50.906;7.248;2024-01-15T00:43:34;46.08;;;21.33;;
41663;SDS011;27353;50.906;7.248;2024-01-15T00:46:01;36.90;;;19.10;;
41663;SDS011;27353;50.906;7.248;2024-01-15T00:48:28;33.50;;;19.20;;
41663;SDS011;27353;50.906;7.248;2024-01-15T00:50:53;41.72;;;18.95;;
41663;SDS011;27353;50.906;7.248;2024-01-15T00:53:19;46.20;;;19.85;;
41663;SDS011;27353;50.906;7.248;2024-01-15T00:55:47;39.00;;;20.58;;
41663;SDS011;27353;50.906;7.248;2024-01-15T00:58:13;40.78;;;19.60;;
41663;SDS011;27353;50.906;7.248;2024-01-15T01:00:39;38.97;;;19.60;;
41663;SDS011;27353;50.906;7.248;2024-01-15T01:03:05;39.50;;;21.27;;
41663;SDS011;27353;50.906;7.248;2024-01-15T01:05:33;46.47;;;21.52;;
41663;SDS011;27353;50.906;7.248;2024-01-15T01:07:59;41.83;;;21.63;;
41663;SDS011;27353;50.906;7.248;2024-01-15T01:10:25;42.53;;;19.58;;
41663;SDS011;27353;50.906;7.248;2024-01-15T01:12:50;40.50;;;20.98;;
41663;SDS011;27353;50.906;7.248;2024-01-15T01:15:16;35.05;;;20.13;;
41663;SDS011;27353;50.906;7.248;2024-01-15T01:17:41;41.40;;;21.27;;
41663;SDS011;27353;50.906;7.248;2024-01-15T01:20:07;48.90;;;23.85;;
41663;SDS011;27353;50.906;7.248;2024-01-15T01:22:35;44.40;;;21.08;;
41663;SDS011;27353;50.906;7.248;2024-01-15T01:25:01;41.13;;;21.30;;
41663;SDS011;27353;50.906;7.248;2024-01-15T01:27:27;44.40;;;20.13;;
41663;SDS011;27353;50.906;7.248;2024-01-15T01:29:53;36.00;;;19.60;;
41663;SDS011;27353;50.906;7.248;2024-01-15T01:32:18;50.47;;;21.58;;
41663;SDS011;27353;50.906;7.248;2024-01-15T01:34:44;43.35;;;24.52;;
41663;SDS011;27353;50.906;7.248;2024-01-15T01:37:10;37.97;;;21.25;;
41663;SDS011;27353;50.906;7.248;2024-01-15T01:39:40;33.05;;;19.08;;
41663;SDS011;27353;50.906;7.248;2024-01-15T01:42:06;41.90;;;21.85;;
41663;SDS011;27353;50.906;7.248;2024-01-15T01:44:32;39.78;;;19.05;;
41663;SDS011;27353;50.906;7.248;2024-01-15T01:46:58;38.00;;;20.65;;
41663;SDS011;27353;50.906;7.248;2024-01-15T01:49:25;42.95;;;19.80;;
41663;SDS011;27353;50.906;7.248;2024-01-15T01:51:53;40.85;;;23.90;;
41663;SDS011;27353;50.906;7.248;2024-01-15T01:54:22;42.55;;;20.67;;
41663;SDS011;27353;50.906;7.248;2024-01-15T01:56:49;40.03;;;22.00;;
41663;SDS011;27353;50.906;7.248;2024-01-15T01:59:16;40.25;;;21.60;;
41663;SDS011;27353;50.906;7.248;2024-01-15T02:01:42;53.63;;;22.38;;
41663;SDS011;27353;50.906;7.248;2024-01-15T02:04:09;45.35;;;22.38;;
41663;SDS011;27353;50.906;7.248;2024-01-15T02:06:35;34.95;;;19.15;;
41663;SDS011;27353;50.906;7.248;2024-01-15T02:09:01;36.28;;;21.77;;
41663;SDS011;27353;50.906;7.248;2024-01-15T02:11:26;38.30;;;21.67;;
41663;SDS011;27353;50.906;7.248;2024-01-15T02:13:52;33.45;;;20.98;;
41663;SDS011;27353;50.906;7.248;2024-01-15T02:16:18;44.97;;;22.55;;
41663;SDS011;27353;50.906;7.248;2024-01-15T02:18:44;44.60;;;23.88;;
41663;SDS011;27353;50.906;7.248;2024-01-15T02:21:10;48.25;;;22.10;;
41663;SDS011;27353;50.906;7.248;2024-01-15T02:23:37;33.00;;;20.95;;
41663;SDS011;27353;50.906;7.248;2024-01-15T02:26:04;46.20;;;22.35;;
41663;SDS011;27353;50.906;7.248;2024-01-15T02:28:30;44.72;;;23.40;;
41663;SDS011;27353;50.906;7.248;2024-01-15T02:30:57;40.67;;;21.05;;
41663;SDS011;27353;50.906;7.248;2024-01-15T02:33:23;46.90;;;22.70;;
41663;SDS011;27353;50.906;7.248;2024-01-15T02:35:48;43.55;;;23.85;;
41663;SDS011;27353;50.906;7.248;2024-01-15T02:38:15;42.55;;;20.23;;
41663;SDS011;27353;50.906;7.248;2024-01-15T02:40:41;46.67;;;22.02;;
41663;SDS011;27353;50.906;7.248;2024-01-15T02:43:08;46.08;;;21.55;;
41663;SDS011;27353;50.906;7.248;2024-01-15T02:45:33;51.42;;;23.02;;
41663;SDS011;27353;50.906;7.248;2024-01-15T02:47:59;35.72;;;21.42;;
41663;SDS011;27353;50.906;7.248;2024-01-15T02:50:25;40.65;;;20.30;;
41663;SDS011;27353;50.906;7.248;2024-01-15T02:52:50;39.28;;;22.05;;
41663;SDS011;27353;50.906;7.248;2024-01-15T02:55:16;36.28;;;18.75;;
41663;SDS011;27353;50.906;7.248;2024-01-15T02:57:42;34.85;;;19.23;;
41663;SDS011;27353;50.906;7.248;2024-01-15T03:00:07;40.28;;;21.52;;
41663;SDS011;27353;50.906;7.248;2024-01-15T03:02:36;36.55;;;19.45;;
41663;SDS011;27353;50.906;7.248;2024-01-15T03:05:04;34.47;;;20.60;;
41663;SDS011;27353;50.906;7.248;2024-01-15T03:07:33;43.47;;;18.15;;
41663;SDS011;27353;50.906;7.248;2024-01-15T03:09:59;39.53;;;21.90;;
41663;SDS011;27353;50.906;7.248;2024-01-15T03:12:24;41.92;;;21.88;;
41663;SDS011;27353;50.906;7.248;2024-01-15T03:14:50;42.97;;;20.40;;
41663;SDS011;27353;50.906;7.248;2024-01-15T03:17:16;36.72;;;20.95;;
41663;SDS011;27353;50.906;7.248;2024-01-15T03:19:41;42.92;;;21.30;;
41663;SDS011;27353;50.906;7.248;2024-01-15T03:22:07;40.38;;;19.52;;
41663;SDS011;27353;50.906;7.248;2024-01-15T03:24:33;43.03;;;21.08;;
41663;SDS011;27353;50.906;7.248;2024-01-15T03:27:00;46.67;;;24.15;;
41663;SDS011;27353;50.906;7.248;2024-01-15T03:29:26;40.38;;;23.02;;
41663;SDS011;27353;50.906;7.248;2024-01-15T03:31:52;47.33;;;21.45;;
41663;SDS011;27353;50.906;7.248;2024-01-15T03:34:17;37.13;;;19.35;;
41663;SDS011;27353;50.906;7.248;2024-01-15T03:36:43;37.75;;;18.77;;
41663;SDS011;27353;50.906;7.248;2024-01-15T03:39:09;33.65;;;20.13;;
41663;SDS011;27353;50.906;7.248;2024-01-15T03:41:34;32.92;;;17.48;;
41663;SDS011;27353;50.906;7.248;2024-01-15T03:44:00;34.78;;;18.75;;
41663;SDS011;27353;50.906;7.248;2024-01-15T03:46:26;36.92;;;20.90;;
41663;SDS011;27353;50.906;7.248;2024-01-15T03:48:52;41.97;;;20.45;;
41663;SDS011;27353;50.906;7.248;2024-01-15T03:51:17;40.80;;;23.17;;
41663;SDS011;27353;50.906;7.248;2024-01-15T03:53:43;32.92;;;20.05;;
41663;SDS011;27353;50.906;7.248;2024-01-15T03:56:09;32.58;;;19.30;;
41663;SDS011;27353;50.906;7.248;2024-01-15T03:58:35;42.22;;;20.02;;
41663;SDS011;27353;50.906;7.248;2024-01-15T04:01:00;31.88;;;19.00;;
41663;SDS011;27353;50.906;7.248;2024-01-15T04:03:26;33.10;;;18.58;;
41663;SDS011;27353;50.906;7.248;2024-01-15T04:05:52;38.75;;;19.85;;
41663;SDS011;27353;50.906;7.248;2024-01-15T04:08:17;39.80;;;19.40;;
41663;SDS011;27353;50.906;7.248;2024-01-15T04:10:43;36.53;;;18.73;;
41663;SDS011;27353;50.906;7.248;2024-01-15T04:13:08;38.80;;;20.45;;
41663;SDS011;27353;50.906;7.248;2024-01-15T04:15:34;33.42;;;20.17;;
41663;SDS011;27353;50.906;7.248;2024-01-15T04:18:01;45.33;;;22.48;;
41663;SDS011;27353;50.906;7.248;2024-01-15T04:20:27;35.63;;;21.25;;
41663;SDS011;27353;50.906;7.248;2024-01-15T04:22:53;36.40;;;21.00;;
41663;SDS011;27353;50.906;7.248;2024-01-15T04:25:19;42.45;;;25.02;;
41663;SDS011;27353;50.906;7.248;2024-01-15T04:27:45;36.80;;;22.05;;
41663;SDS011;27353;50.906;7.248;2024-01-15T04:30:10;46.47;;;24.27;;
41663;SDS011;27353;50.906;7.248;2024-01-15T04:32:36;40.35;;;21.05;;
41663;SDS011;27353;50.906;7.248;2024-01-15T04:35:02;45.60;;;25.92;;
41663;SDS011;27353;50.906;7.248;2024-01-15T04:37:27;49.45;;;24.15;;
41663;SDS011;27353;50.906;7.248;2024-01-15T04:39:53;58.58;;;30.05;;
41663;SDS011;27353;50.906;7.248;2024-01-15T04:42:20;45.00;;;26.67;;
41663;SDS011;27353;50.906;7.248;2024-01-15T04:44:49;44.10;;;25.00;;
41663;SDS011;27353;50.906;7.248;2024-01-15T04:47:14;52.22;;;24.88;;
41663;SDS011;27353;50.906;7.248;2024-01-15T04:49:40;34.47;;;18.67;;
41663;SDS011;27353;50.906;7.248;2024-01-15T04:52:06;42.03;;;23.25;;
41663;SDS011;27353;50.906;7.248;2024-01-15T04:54:31;53.47;;;27.52;;
41663;SDS011;27353;50.906;7.248;2024-01-15T04:56:57;39.50;;;23.63;;
41663;SDS011;27353;50.906;7.248;2024-01-15T04:59:23;34.90;;;22.08;;
41663;SDS011;27353;50.906;7.248;2024-01-15T05:01:48;48.15;;;24.65;;
41663;SDS011;27353;50.906;7.248;2024-01-15T05:04:14;50.00;;;26.17;;
41663;SDS011;27353;50.906;7.248;2024-01-15T05:06:40;41.20;;;23.48;;
41663;SDS011;27353;50.906;7.248;2024-01-15T05:09:06;44.40;;;23.33;;
41663;SDS011;27353;50.906;7.248;2024-01-15T05:11:32;39.90;;;17.95;;
41663;SDS011;27353;50.906;7.248;2024-01-15T05:13:57;40.70;;;21.40;;
41663;SDS011;27353;50.906;7.248;2024-01-15T05:16:23;38.67;;;20.90;;
41663;SDS011;27353;50.906;7.248;2024-01-15T05:18:49;30.95;;;17.70;;
41663;SDS011;27353;50.906;7.248;2024-01-15T05:21:14;33.10;;;18.55;;
41663;SDS011;27353;50.906;7.248;2024-01-15T05:23:40;39.60;;;18.88;;
41663;SDS011;27353;50.906;7.248;2024-01-15T05:26:06;25.25;;;17.02;;
41663;SDS011;27353;50.906;7.248;2024-01-15T05:28:33;36.22;;;18.73;;
41663;SDS011;27353;50.906;7.248;2024-01-15T05:30:59;31.35;;;18.63;;
41663;SDS011;27353;50.906;7.248;2024-01-15T05:33:25;29.75;;;19.85;;
41663;SDS011;27353;50.906;7.248;2024-01-15T05:35:51;43.90;;;17.33;;
41663;SDS011;27353;50.906;7.248;2024-01-15T05:38:17;43.25;;;21.35;;
41663;SDS011;27353;50.906;7.248;2024-01-15T05:40:42;40.17;;;19.17;;
41663;SDS011;27353;50.906;7.248;2024-01-15T05:43:08;23.75;;;15.68;;
41663;SDS011;27353;50.906;7.248;2024-01-15T05:45:34;37.53;;;19.15;;
41663;SDS011;27353;50.906;7.248;2024-01-15T05:48:00;35.78;;;17.60;;
41663;SDS011;27353;50.906;7.248;2024-01-15T05:50:26;29.92;;;17.30;;
41663;SDS011;27353;50.906;7.248;2024-01-15T05:52:52;31.80;;;16.95;;
41663;SDS011;27353;50.906;7.248;2024-01-15T05:55:17;29.35;;;17.80;;
41663;SDS011;27353;50.906;7.248;2024-01-15T05:57:44;44.47;;;15.88;;
41663;SDS011;27353;50.906;7.248;2024-01-15T06:00:10;26.38;;;14.73;;
41663;SDS011;27353;50.906;7.248;2024-01-15T06:02:39;24.27;;;15.20;;
41663;SDS011;27353;50.906;7.248;2024-01-15T06:05:05;31.80;;;17.30;;
41663;SDS011;27353;50.906;7.248;2024-01-15T06:07:33;24.67;;;15.88;;
41663;SDS011;27353;50.906;7.248;2024-01-15T06:09:59;33.42;;;15.57;;
41663;SDS011;27353;50.906;7.248;2024-01-15T06:12:25;24.60;;;14.43;;
41663;SDS011;27353;50.906;7.248;2024-01-15T06:14:51;24.42;;;15.98;;
41663;SDS011;27353;50.906;7.248;2024-01-15T06:17:17;22.75;;;14.07;;
41663;SDS011;27353;50.906;7.248;2024-01-15T06:19:42;31.48;;;17.63;;
41663;SDS011;27353;50.906;7.248;2024-01-15T06:22:08;32.38;;;15.93;;
41663;SDS011;27353;50.906;7.248;2024-01-15T06:24:34;36.30;;;18.98;;
41663;SDS011;27353;50.906;7.248;2024-01-15T06:26:59;33.05;;;17.58;;
41663;SDS011;27353;50.906;7.248;2024-01-15T06:29:25;34.97;;;18.23;;
41663;SDS011;27353;50.906;7.248;2024-01-15T06:31:54;35.08;;;18.60;;
41663;SDS011;27353;50.906;7.248;2024-01-15T06:34:20;27.92;;;15.13;;
41663;SDS011;27353;50.906;7.248;2024-01-15T06:36:45;32.63;;;18.27;;
41663;SDS011;27353;50.906;7.248;2024-01-15T06:39:11;30.95;;;17.85;;
41663;SDS011;27353;50.906;7.248;2024-01-15T06:41:37;31.38;;;18.30;;
41663;SDS011;27353;50.906;7.248;2024-01-15T06:44:08;31.63;;;15.85;;
41663;SDS011;27353;50.906;7.248;2024-01-15T06:46:35;28.23;;;17.02;;
41663;SDS011;27353;50.906;7.248;2024-01-15T06:49:01;25.10;;;14.35;;
41663;SDS011;27353;50.906;7.248;2024-01-15T06:51:26;29.10;;;16.75;;
41663;SDS011;27353;50.906;7.248;2024-01-15T06:53:52;37.60;;;19.85;;
41663;SDS011;27353;50.906;7.248;2024-01-15T06:56:18;46.65;;;21.08;;
41663;SDS011;27353;50.906;7.248;2024-01-15T06:58:43;32.58;;;18.95;;
41663;SDS011;27353;50.906;7.248;2024-01-15T07:01:09;41.97;;;21.23;;
41663;SDS011;27353;50.906;7.248;2024-01-15T07:03:35;33.65;;;17.85;;
41663;SDS011;27353;50.906;7.248;2024-01-15T07:06:00;48.78;;;20.30;;
41663;SDS011;27353;50.906;7.248;2024-01-15T07:08:26;43.25;;;19.15;;
41663;SDS011;27353;50.906;7.248;2024-01-15T07:10:52;34.50;;;20.10;;
41663;SDS011;27353;50.906;7.248;2024-01-15T07:13:17;31.15;;;18.52;;
41663;SDS011;27353;50.906;7.248;2024-01-15T07:15:43;34.00;;;18.83;;
41663;SDS011;27353;50.906;7.248;2024-01-15T07:18:08;29.90;;;18.55;;
41663;SDS011;27353;50.906;7.248;2024-01-15T07:20:34;36.15;;;17.27;;
41663;SDS011;27353;50.906;7.248;2024-01-15T07:23:00;32.53;;;17.88;;
41663;SDS011;27353;50.906;7.248;2024-01-15T07:25:25;32.58;;;19.33;;
41663;SDS011;27353;50.906;7.248;2024-01-15T07:27:51;31.17;;;18.17;;
41663;SDS011;27353;50.906;7.248;2024-01-15T07:30:18;31.52;;;20.58;;
41663;SDS011;27353;50.906;7.248;2024-01-15T07:32:46;31.92;;;20.52;;
41663;SDS011;27353;50.906;7.248;2024-01-15T07:35:13;28.23;;;15.68;;
41663;SDS011;27353;50.906;7.248;2024-01-15T07:37:40;32.60;;;19.30;;
41663;SDS011;27353;50.906;7.248;2024-01-15T07:40:06;28.00;;;19.08;;
41663;SDS011;27353;50.906;7.248;2024-01-15T07:42:33;33.05;;;17.90;;
41663;SDS011;27353;50.906;7.248;2024-01-15T07:44:59;42.42;;;18.73;;
41663;SDS011;27353;50.906;7.248;2024-01-15T07:47:25;34.50;;;17.52;;
41663;SDS011;27353;50.906;7.248;2024-01-15T07:49:52;34.15;;;17.08;;
41663;SDS011;27353;50.906;7.248;2024-01-15T07:52:18;26.02;;;16.30;;
41663;SDS011;27353;50.906;7.248;2024-01-15T07:54:43;31.20;;;15.90;;
41663;SDS011;27353;50.906;7.248;2024-01-15T07:57:10;27.83;;;14.30;;
41663;SDS011;27353;50.906;7.248;2024-01-15T07:59:36;26.48;;;16.10;;
41663;SDS011;27353;50.906;7.248;2024-01-15T08:02:01;32.53;;;16.15;;
41663;SDS011;27353;50.906;7.248;2024-01-15T08:04:27;26.02;;;16.15;;
41663;SDS011;27353;50.906;7.248;2024-01-15T08:06:53;28.55;;;16.10;;
41663;SDS011;27353;50.906;7.248;2024-01-15T08:09:18;37.20;;;17.95;;
41663;SDS011;27353;50.906;7.248;2024-01-15T08:11:44;22.95;;;15.32;;
41663;SDS011;27353;50.906;7.248;2024-01-15T08:14:10;30.88;;;16.67;;
41663;SDS011;27353;50.906;7.248;2024-01-15T08:16:36;26.55;;;15.82;;
41663;SDS011;27353;50.906;7.248;2024-01-15T08:19:02;33.95;;;16.73;;
41663;SDS011;27353;50.906;7.248;2024-01-15T08:21:28;33.85;;;20.27;;
41663;SDS011;27353;50.906;7.248;2024-01-15T08:24:03;34.83;;;18.13;;
41663;SDS011;27353;50.906;7.248;2024-01-15T08:26:29;30.00;;;19.77;;
41663;SDS011;27353;50.906;7.248;2024-01-15T08:28:55;37.25;;;19.92;;
41663;SDS011;27353;50.906;7.248;2024-01-15T08:31:20;36.28;;;19.48;;
41663;SDS011;27353;50.906;7.248;2024-01-15T08:33:46;28.88;;;19.08;;
41663;SDS011;27353;50.906;7.248;2024-01-15T08:36:12;33.42;;;21.33;;
41663;SDS011;27353;50.906;7.248;2024-01-15T08:38:38;40.88;;;19.75;;
41663;SDS011;27353;50.906;7.248;2024-01-15T08:41:04;36.00;;;18.75;;
41663;SDS011;27353;50.906;7.248;2024-01-15T08:43:30;37.50;;;19.13;;
41663;SDS011;27353;50.906;7.248;2024-01-15T08:45:56;33.03;;;18.08;;
41663;SDS011;27353;50.906;7.248;2024-01-15T08:48:22;33.35;;;17.15;;
41663;SDS011;27353;50.906;7.248;2024-01-15T08:50:48;43.80;;;23.60;;
41663;SDS011;27353;50.906;7.248;2024-01-15T08:53:14;31.00;;;17.83;;
41663;SDS011;27353;50.906;7.248;2024-01-15T08:55:40;31.25;;;17.63;;
41663;SDS011;27353;50.906;7.248;2024-01-15T08:58:07;41.72;;;18.63;;
41663;SDS011;27353;50.906;7.248;2024-01-15T09:00:33;28.35;;;16.40;;
41663;SDS011;27353;50.906;7.248;2024-01-15T09:02:59;33.60;;;18.15;;
41663;SDS011;27353;50.906;7.248;2024-01-15T09:05:25;38.47;;;18.70;;
41663;SDS011;27353;50.906;7.248;2024-01-15T09:07:51;34.50;;;18.05;;
41663;SDS011;27353;50.906;7.248;2024-01-15T09:10:19;33.22;;;16.88;;
41663;SDS011;27353;50.906;7.248;2024-01-15T09:12:45;36.00;;;19.88;;
41663;SDS011;27353;50.906;7.248;2024-01-15T09:15:11;32.22;;;17.17;;
41663;SDS011;27353;50.906;7.248;2024-01-15T09:17:37;32.28;;;21.13;;
41663;SDS011;27353;50.906;7.248;2024-01-15T09:20:02;39.05;;;17.35;;
41663;SDS011;27353;50.906;7.248;2024-01-15T09:22:30;40.22;;;20.20;;
41663;SDS011;27353;50.906;7.248;2024-01-15T09:24:56;24.17;;;15.82;;
41663;SDS011;27353;50.906;7.248;2024-01-15T09:27:22;40.05;;;22.30;;
41663;SDS011;27353;50.906;7.248;2024-01-15T09:29:47;36.22;;;17.73;;
41663;SDS011;27353;50.906;7.248;2024-01-15T09:32:13;35.80;;;19.52;;
41663;SDS011;27353;50.906;7.248;2024-01-15T09:34:39;30.27;;;20.40;;
41663;SDS011;27353;50.906;7.248;2024-01-15T09:37:04;31.85;;;17.65;;
41663;SDS011;27353;50.906;7.248;2024-01-15T09:39:30;31.92;;;16.85;;
41663;SDS011;27353;50.906;7.248;2024-01-15T09:41:57;28.58;;;14.55;;
41663;SDS011;27353;50.906;7.248;2024-01-15T09:44:23;20.17;;;14.95;;
41663;SDS011;27353;50.906;7.248;2024-01-15T09:46:49;24.20;;;13.82;;
41663;SDS011;27353;50.906;7.248;2024-01-15T09:49:17;22.40;;;12.30;;
41663;SDS011;27353;50.906;7.248;2024-01-15T09:51:44;26.67;;;14.80;;
41663;SDS011;27353;50.906;7.248;2024-01-15T09:54:10;22.17;;;12.60;;
41663;SDS011;27353;50.906;7.248;2024-01-15T09:56:38;24.15;;;13.60;;
41663;SDS011;27353;50.906;7.248;2024-01-15T09:59:04;21.30;;;12.43;;
41663;SDS011;27353;50.906;7.248;2024-01-15T10:01:31;19.75;;;13.55;;
41663;SDS011;27353;50.906;7.248;2024-01-15T10:03:57;18.70;;;12.45;;
41663;SDS011;27353;50.906;7.248;2024-01-15T10:06:23;23.50;;;15.13;;
41663;SDS011;27353;50.906;7.248;2024-01-15T10:08:52;18.15;;;11.90;;
41663;SDS011;27353;50.906;7.248;2024-01-15T10:11:21;20.40;;;11.25;;
41663;SDS011;27353;50.906;7.248;2024-01-15T10:13:46;16.65;;;11.50;;
41663;SDS011;27353;50.906;7.248;2024-01-15T10:16:17;17.30;;;11.68;;
41663;SDS011;27353;50.906;7.248;2024-01-15T10:18:42;16.48;;;10.45;;
41663;SDS011;27353;50.906;7.248;2024-01-15T10:21:08;15.35;;;10.23;;
41663;SDS011;27353;50.906;7.248;2024-01-15T10:23:33;15.75;;;9.35;;
41663;SDS011;27353;50.906;7.248;2024-01-15T10:25:59;13.90;;;8.85;;
41663;SDS011;27353;50.906;7.248;2024-01-15T10:28:26;14.52;;;9.68;;
41663;SDS011;27353;50.906;7.248;2024-01-15T10:30:55;16.70;;;9.48;;
41663;SDS011;27353;50.906;7.248;2024-01-15T10:33:23;11.02;;;8.18;;
41663;SDS011;27353;50.906;7.248;2024-01-15T10:35:55;16.75;;;10.90;;
41663;SDS011;27353;50.906;7.248;2024-01-15T10:38:22;11.73;;;8.57;;
41663;SDS011;27353;50.906;7.248;2024-01-15T10:40:50;10.60;;;8.05;;
41663;SDS011;27353;50.906;7.248;2024-01-15T10:43:17;12.60;;;8.65;;
41663;SDS011;27353;50.906;7.248;2024-01-15T10:45:46;17.80;;;8.85;;
41663;SDS011;27353;50.906;7.248;2024-01-15T10:48:12;11.82;;;8.38;;
41663;SDS011;27353;50.906;7.248;2024-01-15T10:50:38;13.05;;;9.75;;
41663;SDS011;27353;50.906;7.248;2024-01-15T10:53:04;14.07;;;7.38;;
41663;SDS011;27353;50.906;7.248;2024-01-15T10:55:30;14.98;;;10.30;;
41663;SDS011;27353;50.906;7.248;2024-01-15T10:57:58;9.50;;;7.50;;
41663;SDS011;27353;50.906;7.248;2024-01-15T11:00:25;10.60;;;7.40;;
41663;SDS011;27353;50.906;7.248;2024-01-15T11:02:51;8.30;;;7.55;;
41663;SDS011;27353;50.906;7.248;2024-01-15T11:05:20;6.95;;;6.25;;
41663;SDS011;27353;50.906;7.248;2024-01-15T11:07:48;10.63;;;7.47;;
41663;SDS011;27353;50.906;7.248;2024-01-15T11:11:00;11.52;;;7.47;;
41663;SDS011;27353;50.906;7.248;2024-01-15T11:13:14;11.43;;;8.27;;
41663;SDS011;27353;50.906;7.248;2024-01-15T11:18:22;7.05;;;6.35;;
41663;SDS011;27353;50.906;7.248;2024-01-15T11:28:58;6.47;;;4.43;;
41663;SDS011;27353;50.906;7.248;2024-01-15T11:31:29;7.80;;;5.55;;
41663;SDS011;27353;50.906;7.248;2024-01-15T11:34:01;4.65;;;4.13;;
41663;SDS011;27353;50.906;7.248;2024-01-15T11:44:26;8.45;;;5.60;;
41663;SDS011;27353;50.906;7.248;2024-01-15T11:52:10;7.97;;;6.25;;
41663;SDS011;27353;50.906;7.248;2024-01-15T11:54:39;6.28;;;3.83;;
41663;SDS011;27353;50.906;7.248;2024-01-15T11:57:12;5.88;;;4.40;;
41663;SDS011;27353;50.906;7.248;2024-01-15T11:59:47;8.70;;;5.15;;
41663;SDS011;27353;50.906;7.248;2024-01-15T12:02:13;6.35;;;5.72;;
41663;SDS011;27353;50.906;7.248;2024-01-15T12:04:39;7.03;;;6.32;;
41663;SDS011;27353;50.906;7.248;2024-01-15T12:07:05;8.40;;;5.47;;
41663;SDS011;27353;50.906;7.248;2024-01-15T12:09:30;7.07;;;6.43;;
41663;SDS011;27353;50.906;7.248;2024-01-15T12:12:17;7.40;;;6.63;;
41663;SDS011;27353;50.906;7.248;2024-01-15T12:15:03;6.40;;;5.18;;
41663;SDS011;27353;50.906;7.248;2024-01-15T12:17:29;6.47;;;5.47;;
41663;SDS011;27353;50.906;7.248;2024-01-15T12:19:55;10.60;;;6.75;;
41663;SDS011;27353;50.906;7.248;2024-01-15T12:22:22;9.95;;;7.10;;
41663;SDS011;27353;50.906;7.248;2024-01-15T12:24:48;10.82;;;6.45;;
41663;SDS011;27353;50.906;7.248;2024-01-15T12:27:13;7.68;;;6.93;;
41663;SDS011;27353;50.906;7.248;2024-01-15T12:29:39;13.63;;;7.38;;
41663;SDS011;27353;50.906;7.248;2024-01-15T12:32:05;11.23;;;8.07;;
41663;SDS011;27353;50.906;7.248;2024-01-15T12:34:33;12.00;;;8.60;;
41663;SDS011;27353;50.906;7.248;2024-01-15T12:36:58;16.73;;;9.07;;
41663;SDS011;27353;50.906;7.248;2024-01-15T12:39:24;12.43;;;9.60;;
41663;SDS011;27353;50.906;7.248;2024-01-15T12:41:50;11.32;;;7.47;;
41663;SDS011;27353;50.906;7.248;2024-01-15T12:44:16;12.00;;;8.43;;
41663;SDS011;27353;50.906;7.248;2024-01-15T12:46:42;10.85;;;7.47;;
41663;SDS011;27353;50.906;7.248;2024-01-15T12:49:08;9.35;;;7.20;;
41663;SDS011;27353;50.906;7.248;2024-01-15T12:51:34;14.52;;;8.18;;
41663;SDS011;27353;50.906;7.248;2024-01-15T12:53:59;10.18;;;6.40;;
41663;SDS011;27353;50.906;7.248;2024-01-15T12:56:25;9.10;;;6.97;;
41663;SDS011;27353;50.906;7.248;2024-01-15T12:58:51;10.05;;;7.53;;
41663;SDS011;27353;50.906;7.248;2024-01-15T13:01:16;10.52;;;7.93;;
41663;SDS011;27353;50.906;7.248;2024-01-15T13:03:42;13.38;;;7.93;;
41663;SDS011;27353;50.906;7.248;2024-01-15T13:06:08;12.45;;;7.53;;
41663;SDS011;27353;50.906;7.248;2024-01-15T13:08:34;12.02;;;7.18;;
41663;SDS011;27353;50.906;7.248;2024-01-15T13:10:59;9.50;;;7.05;;
41663;SDS011;27353;50.906;7.248;2024-01-15T13:13:25;13.40;;;7.70;;
41663;SDS011;27353;50.906;7.248;2024-01-15T13:15:51;12.35;;;8.30;;
41663;SDS011;27353;50.906;7.248;2024-01-15T13:18:17;21.75;;;8.52;;
41663;SDS011;27353;50.906;7.248;2024-01-15T13:20:43;13.73;;;7.85;;
41663;SDS011;27353;50.906;7.248;2024-01-15T13:23:08;9.48;;;6.05;;
41663;SDS011;27353;50.906;7.248;2024-01-15T13:25:35;7.82;;;6.68;;
41663;SDS011;27353;50.906;7.248;2024-01-15T13:28:03;14.05;;;6.90;;
41663;SDS011;27353;50.906;7.248;2024-01-15T13:30:29;10.40;;;7.32;;
41663;SDS011;27353;50.906;7.248;2024-01-15T13:32:56;16.10;;;7.47;;
41663;SDS011;27353;50.906;7.248;2024-01-15T13:35:23;7.32;;;5.80;;
41663;SDS011;27353;50.906;7.248;2024-01-15T13:37:48;9.88;;;6.10;;
41663;SDS011;27353;50.906;7.248;2024-01-15T13:40:14;14.43;;;7.22;;
41663;SDS011;27353;50.906;7.248;2024-01-15T13:42:45;11.32;;;6.25;;
41663;SDS011;27353;50.906;7.248;2024-01-15T13:45:11;10.13;;;7.25;;
41663;SDS011;27353;50.906;7.248;2024-01-15T13:47:39;10.13;;;6.85;;
41663;SDS011;27353;50.906;7.248;2024-01-15T13:50:09;10.43;;;5.93;;
41663;SDS011;27353;50.906;7.248;2024-01-15T13:52:35;14.02;;;6.20;;
41663;SDS011;27353;50.906;7.248;2024-01-15T13:55:01;12.80;;;7.90;;
41663;SDS011;27353;50.906;7.248;2024-01-15T13:57:26;11.55;;;7.22;;
41663;SDS011;27353;50.906;7.248;2024-01-15T13:59:52;10.07;;;6.72;;
41663;SDS011;27353;50.906;7.248;2024-01-15T14:02:18;7.50;;;6.05;;
41663;SDS011;27353;50.906;7.248;2024-01-15T14:04:45;7.75;;;6.20;;
41663;SDS011;27353;50.906;7.248;2024-01-15T14:07:11;10.43;;;6.70;;
41663;SDS011;27353;50.906;7.248;2024-01-15T14:09:36;9.45;;;5.95;;
41663;SDS011;27353;50.906;7.248;2024-01-15T14:12:02;8.65;;;4.78;;
41663;SDS011;27353;50.906;7.248;2024-01-15T14:14:28;6.50;;;4.70;;
41663;SDS011;27353;50.906;7.248;2024-01-15T14:16:54;5.15;;;3.85;;
41663;SDS011;27353;50.906;7.248;2024-01-15T14:19:20;9.88;;;5.63;;
41663;SDS011;27353;50.906;7.248;2024-01-15T14:21:45;6.68;;;5.43;;
41663;SDS011;27353;50.906;7.248;2024-01-15T14:24:11;7.40;;;4.68;;
41663;SDS011;27353;50.906;7.248;2024-01-15T14:26:37;7.18;;;4.47;;
41663;SDS011;27353;50.906;7.248;2024-01-15T14:29:02;5.45;;;4.47;;
41663;SDS011;27353;50.906;7.248;2024-01-15T14:31:28;5.93;;;3.50;;
41663;SDS011;27353;50.906;7.248;2024-01-15T14:33:54;6.90;;;5.00;;
41663;SDS011;27353;50.906;7.248;2024-01-15T14:36:23;6.00;;;5.07;;
41663;SDS011;27353;50.906;7.248;2024-01-15T14:38:49;5.88;;;4.03;;
41663;SDS011;27353;50.906;7.248;2024-01-15T14:41:15;9.05;;;5.20;;
41663;SDS011;27353;50.906;7.248;2024-01-15T14:43:41;9.57;;;5.47;;
41663;SDS011;27353;50.906;7.248;2024-01-15T14:46:07;9.88;;;4.63;;